Time;durP1;ratioP1;P1;durP2;ratioP2;P2;SDS_P1;SDS_P2;PMS_P1;PMS_P2;Temp;Humidity;BMP_temperature;BMP_pressure;BME280_temperature;BME280_humidity;BME280_pressure;Samples;Min_cycle;Max_cycle;Signal;HPM_P1;HPM_P2
2022/10/09 00:01:02;;;;;;;7.53;4.63;;;8.60;99.90;;;;;;4864018;29;20204;-88
2022/10/09 00:03:28;;;;;;;6.67;3.60;;;8.60;99.90;;;;;;4864006;29;20183;-88
2022/10/09 00:05:54;;;;;;;6.33;4.10;;;8.50;99.90;;;;;;4863693;29;20244;-88
2022/10/09 00:08:20;;;;;;;7.30;4.20;;;8.50;99.90;;;;;;4878788;29;20208;-88
2022/10/09 00:10:46;;;;;;;6.10;4.57;;;8.50;99.90;;;;;;4863675;29;20207;-88
2022/10/09 00:13:11;;;;;;;5.93;4.83;;;8.40;99.90;;;;;;4863585;29;20180;-88
2022/10/09 00:15:43;;;;;;;6.43;4.80;;;8.40;99.90;;;;;;4878968;29;20232;-88
2022/10/09 00:18:11;;;;;;;8.20;4.70;;;8.30;99.90;;;;;;4863349;29;20222;-88
2022/10/09 00:20:38;;;;;;;6.73;4.77;;;8.30;99.90;;;;;;4863341;29;20191;-88
2022/10/09 00:23:05;;;;;;;6.60;5.37;;;8.30;99.90;;;;;;4863434;29;20180;-88
2022/10/09 00:25:31;;;;;;;7.27;4.90;;;8.30;99.90;;;;;;4863311;29;20184;-88
2022/10/09 00:27:58;;;;;;;6.30;4.40;;;8.20;99.90;;;;;;4863066;29;20257;-88
2022/10/09 00:30:38;;;;;;;6.13;4.30;;;8.20;99.90;;;;;;4863228;29;20188;-88
2022/10/09 00:33:04;;;;;;;9.00;4.17;;;8.20;99.90;;;;;;4863569;29;20183;-88
2022/10/09 00:35:30;;;;;;;6.50;4.20;;;8.10;99.90;;;;;;4863038;29;20188;-88
2022/10/09 00:38:04;;;;;;;5.27;4.03;;;7.90;99.90;;;;;;4862336;29;20192;-88
2022/10/09 00:40:30;;;;;;;4.07;3.70;;;7.90;99.90;;;;;;4878284;29;20215;-88
2022/10/09 00:42:57;;;;;;;5.00;3.97;;;7.90;99.90;;;;;;4878760;29;20188;-88
2022/10/09 00:45:22;;;;;;;4.83;4.13;;;7.90;99.90;;;;;;4878380;29;20192;-88
2022/10/09 00:47:59;;;;;;;5.17;4.10;;;7.90;99.90;;;;;;4878369;29;20218;-88
2022/10/09 00:50:34;;;;;;;5.80;3.90;;;7.90;99.90;;;;;;4878272;29;20183;-88
2022/10/09 00:53:02;;;;;;;7.30;4.10;;;7.80;99.90;;;;;;4878623;29;20197;-88
2022/10/09 00:55:29;;;;;;;5.47;4.00;;;7.80;99.90;;;;;;4878329;29;20191;-88
2022/10/09 00:57:58;;;;;;;6.17;4.00;;;7.70;99.90;;;;;;4878084;29;20180;-88
2022/10/09 01:00:25;;;;;;;11.70;5.33;;;7.70;99.90;;;;;;4878464;29;20287;-88
2022/10/09 01:02:52;;;;;;;7.70;5.57;;;7.80;99.90;;;;;;4878287;29;20191;-88
2022/10/09 01:05:21;;;;;;;7.07;4.63;;;7.80;99.90;;;;;;4862658;29;20275;-88
2022/10/09 01:08:00;;;;;;;11.77;5.20;;;7.80;99.90;;;;;;4877947;29;20215;-88
2022/10/09 01:10:48;;;;;;;4.87;4.00;;;7.90;99.90;;;;;;4877894;29;20186;-88
2022/10/09 01:13:26;;;;;;;11.23;4.60;;;7.90;99.90;;;;;;4878203;29;20187;-88
2022/10/09 01:16:04;;;;;;;4.97;4.20;;;7.90;99.90;;;;;;4878074;29;20187;-88
2022/10/09 01:18:50;;;;;;;8.00;4.80;;;8.00;99.90;;;;;;4877916;29;20172;-88
2022/10/09 01:21:20;;;;;;;8.70;4.70;;;8.00;99.90;;;;;;4862388;29;20302;-88
2022/10/09 01:24:05;;;;;;;18.07;6.23;;;8.00;99.90;;;;;;4861718;29;20627;-88
2022/10/09 01:26:59;;;;;;;8.00;4.43;;;8.10;99.90;;;;;;4877780;29;20183;-88
2022/10/09 01:29:31;;;;;;;14.67;5.53;;;8.00;99.90;;;;;;4877903;29;20229;-88
2022/10/09 01:31:59;;;;;;;14.30;6.07;;;8.00;99.90;;;;;;4862510;29;20242;-88
2022/10/09 01:34:27;;;;;;;10.87;5.40;;;8.00;99.90;;;;;;4877804;29;20188;-88
2022/10/09 01:36:55;;;;;;;29.37;6.37;;;8.00;99.90;;;;;;4862454;29;20203;-88
2022/10/09 01:39:22;;;;;;;40.17;5.90;;;8.00;99.90;;;;;;4862608;29;20285;-88
2022/10/09 01:41:51;;;;;;;8.43;5.13;;;7.80;99.90;;;;;;4862034;29;20215;-88
2022/10/09 01:44:19;;;;;;;16.87;5.23;;;7.80;99.90;;;;;;4862584;29;20212;-88
2022/10/09 01:46:45;;;;;;;13.40;5.30;;;7.70;99.90;;;;;;4859175;29;20289;-88
2022/10/09 01:49:26;;;;;;;21.53;5.40;;;7.70;99.90;;;;;;4847164;29;20216;-88
2022/10/09 01:52:01;;;;;;;21.90;4.70;;;7.80;99.90;;;;;;4847599;29;20212;-88
2022/10/09 01:54:38;;;;;;;28.13;4.20;;;7.80;99.90;;;;;;4863044;29;20198;-88
2022/10/09 01:57:07;;;;;;;27.10;4.13;;;7.70;99.90;;;;;;4862754;29;20168;-88
2022/10/09 01:59:38;;;;;;;11.07;4.37;;;7.70;99.90;;;;;;4847303;29;20244;-88
2022/10/09 02:02:05;;;;;;;7.43;4.07;;;7.70;99.90;;;;;;4881263;29;20215;-87
2022/10/09 02:04:32;;;;;;;13.67;4.60;;;7.80;99.90;;;;;;4865768;29;20196;-88
2022/10/09 02:06:58;;;;;;;8.70;3.80;;;7.80;99.90;;;;;;4865549;29;20194;-88
2022/10/09 02:09:24;;;;;;;26.93;4.13;;;7.80;99.90;;;;;;4865633;29;20222;-88
2022/10/09 02:11:56;;;;;;;23.63;3.57;;;7.80;99.90;;;;;;4865972;29;20214;-88
2022/10/09 02:14:21;;;;;;;7.83;3.37;;;7.70;99.90;;;;;;4865625;29;20183;-88
2022/10/09 02:17:00;;;;;;;7.93;3.30;;;7.70;99.90;;;;;;4865266;29;20417;-88
2022/10/09 02:19:49;;;;;;;24.83;3.90;;;7.70;99.90;;;;;;4865362;29;20285;-88
2022/10/09 02:22:24;;;;;;;14.47;4.43;;;7.60;99.90;;;;;;4880722;29;20248;-88
2022/10/09 02:24:50;;;;;;;16.60;4.80;;;7.60;99.90;;;;;;4881055;29;20263;-88
2022/10/09 02:27:19;;;;;;;12.27;4.40;;;7.60;99.90;;;;;;4865256;29;20203;-88
2022/10/09 02:29:46;;;;;;;16.40;4.30;;;7.70;99.90;;;;;;4862230;29;20289;-87
2022/10/09 02:32:13;;;;;;;12.13;4.47;;;7.70;99.90;;;;;;4846731;29;20228;-88
2022/10/09 02:34:39;;;;;;;20.77;5.87;;;7.70;99.90;;;;;;4846826;29;20180;-88
2022/10/09 02:37:05;;;;;;;5.77;4.53;;;7.70;99.90;;;;;;4861801;29;20188;-88
2022/10/09 02:39:31;;;;;;;26.50;4.53;;;7.60;99.90;;;;;;4865426;29;20194;-88
2022/10/09 02:41:57;;;;;;;18.87;4.03;;;7.60;99.90;;;;;;4865242;29;20219;-88
2022/10/09 02:44:23;;;;;;;25.60;4.17;;;7.60;99.90;;;;;;4861977;29;20196;-88
2022/10/09 02:46:49;;;;;;;47.70;6.00;;;7.50;99.90;;;;;;4846441;29;20196;-88
2022/10/09 02:49:15;;;;;;;10.77;4.43;;;7.50;99.90;;;;;;4861832;29;20220;-88
2022/10/09 02:51:41;;;;;;;17.63;4.37;;;7.60;99.90;;;;;;4846390;29;20227;-88
2022/10/09 02:54:07;;;;;;;15.87;4.57;;;7.50;99.90;;;;;;4846917;29;20202;-88
2022/10/09 02:56:33;;;;;;;6.10;4.37;;;7.60;99.90;;;;;;4846283;29;20188;-88
2022/10/09 02:58:59;;;;;;;18.93;4.23;;;7.60;99.90;;;;;;4847486;29;20228;-88
2022/10/09 03:01:25;;;;;;;17.73;5.00;;;7.60;99.90;;;;;;4880248;29;20223;-88
2022/10/09 03:03:51;;;;;;;6.87;4.33;;;7.60;99.90;;;;;;4864822;29;20187;-88
2022/10/09 03:06:21;;;;;;;10.63;4.97;;;7.70;99.90;;;;;;4864782;29;20227;-88
2022/10/09 03:08:49;;;;;;;13.90;4.63;;;7.70;99.90;;;;;;4864607;29;20298;-88
2022/10/09 03:11:16;;;;;;;11.50;5.20;;;7.60;99.90;;;;;;4864591;29;20292;-87
2022/10/09 03:13:42;;;;;;;7.27;4.63;;;7.60;99.90;;;;;;4864543;29;20696;-88
2022/10/09 03:16:10;;;;;;;11.90;4.53;;;7.70;99.90;;;;;;4864816;29;20176;-88
2022/10/09 03:18:37;;;;;;;5.70;4.53;;;7.70;99.90;;;;;;4864332;29;20183;-87
2022/10/09 03:21:07;;;;;;;11.20;5.07;;;7.70;99.90;;;;;;4864544;29;20261;-88
2022/10/09 03:23:34;;;;;;;7.53;3.87;;;7.70;99.90;;;;;;4880128;29;20200;-88
2022/10/09 03:26:03;;;;;;;17.50;6.27;;;7.60;99.90;;;;;;4864390;29;20655;-88
2022/10/09 03:28:29;;;;;;;11.90;5.23;;;7.60;99.90;;;;;;4864153;29;20237;-88
2022/10/09 03:31:07;;;;;;;10.57;4.83;;;7.60;99.90;;;;;;4864546;29;20231;-88
2022/10/09 03:33:34;;;;;;;5.33;4.50;;;7.60;99.90;;;;;;4864293;29;20192;-88
2022/10/09 03:36:00;;;;;;;20.37;4.70;;;7.60;99.90;;;;;;4864005;29;20186;-88
2022/10/09 03:38:26;;;;;;;8.80;4.83;;;7.60;99.90;;;;;;4879417;29;20183;-88
2022/10/09 03:40:52;;;;;;;11.60;4.90;;;7.60;99.90;;;;;;4860860;29;20299;-88
2022/10/09 03:43:18;;;;;;;5.57;4.20;;;7.60;99.90;;;;;;4845732;29;20627;-88
2022/10/09 03:45:44;;;;;;;18.63;5.90;;;7.70;99.90;;;;;;4861053;29;20191;-87
2022/10/09 03:48:12;;;;;;;12.00;5.90;;;7.70;99.90;;;;;;4863701;29;20222;-88
2022/10/09 03:50:40;;;;;;;29.57;6.47;;;7.70;99.90;;;;;;4863940;29;20191;-88
2022/10/09 03:53:07;;;;;;;5.27;4.70;;;7.70;99.90;;;;;;4864184;29;20218;-88
2022/10/09 03:55:33;;;;;;;9.53;5.43;;;7.70;99.90;;;;;;4861011;29;20215;-87
2022/10/09 03:57:59;;;;;;;7.77;4.70;;;7.70;99.90;;;;;;4860549;29;20203;-88
2022/10/09 04:00:29;;;;;;;4.90;4.40;;;7.70;99.90;;;;;;4844699;29;20185;-88
2022/10/09 04:02:55;;;;;;;9.57;4.97;;;7.70;99.90;;;;;;4845628;29;20225;-88
2022/10/09 04:05:22;;;;;;;12.60;4.80;;;7.70;99.90;;;;;;4844851;29;20195;-88
2022/10/09 04:07:48;;;;;;;23.87;5.47;;;7.60;99.90;;;;;;4861472;29;20225;-88
2022/10/09 04:10:14;;;;;;;6.83;4.63;;;7.60;99.90;;;;;;4860088;29;20192;-88
2022/10/09 04:12:40;;;;;;;8.93;4.60;;;7.60;99.90;;;;;;4847910;29;20246;-88
2022/10/09 04:15:07;;;;;;;10.13;4.60;;;7.60;99.90;;;;;;4860702;29;20279;-88
2022/10/09 04:17:33;;;;;;;12.13;5.23;;;7.60;99.90;;;;;;4860352;29;20198;-88
2022/10/09 04:19:59;;;;;;;5.73;4.23;;;7.60;99.90;;;;;;4845179;29;20199;-88
2022/10/09 04:22:25;;;;;;;5.97;4.53;;;7.50;99.90;;;;;;4845085;29;20208;-88
2022/10/09 04:24:51;;;;;;;13.50;5.40;;;7.50;99.90;;;;;;4863276;29;20182;-87
2022/10/09 04:27:17;;;;;;;10.47;4.30;;;7.40;99.90;;;;;;4863017;29;20236;-88
2022/10/09 04:29:44;;;;;;;6.03;4.43;;;7.40;99.90;;;;;;4862940;29;20236;-88
2022/10/09 04:32:11;;;;;;;10.40;5.70;;;7.40;99.90;;;;;;4862908;29;20234;-88
2022/10/09 04:34:37;;;;;;;5.30;4.43;;;7.40;99.90;;;;;;4863253;29;20206;-88
2022/10/09 04:37:03;;;;;;;5.40;4.90;;;7.30;99.90;;;;;;4862938;29;20228;-88
2022/10/09 04:39:29;;;;;;;5.97;4.53;;;7.30;99.90;;;;;;4878263;29;20191;-88
2022/10/09 04:41:55;;;;;;;13.57;5.53;;;7.30;99.90;;;;;;4862321;29;20218;-88
2022/10/09 04:44:21;;;;;;;18.23;5.80;;;7.30;99.90;;;;;;4862815;29;20190;-88
2022/10/09 04:46:50;;;;;;;18.27;6.03;;;7.30;99.90;;;;;;4861895;29;20202;-88
2022/10/09 04:49:16;;;;;;;18.47;5.00;;;7.30;99.90;;;;;;4863216;29;20214;-88
2022/10/09 04:51:43;;;;;;;7.83;4.67;;;7.20;99.90;;;;;;4862415;29;20275;-88
2022/10/09 04:54:10;;;;;;;10.47;5.90;;;7.20;99.90;;;;;;4878408;29;20226;-87
2022/10/09 04:56:36;;;;;;;19.80;5.83;;;7.20;99.90;;;;;;4878297;29;20210;-88
2022/10/09 04:59:01;;;;;;;5.83;4.20;;;7.20;99.90;;;;;;4863265;29;20215;-87
2022/10/09 05:01:28;;;;;;;7.10;4.37;;;7.20;99.90;;;;;;4863030;29;20206;-87
2022/10/09 05:04:02;;;;;;;5.20;4.37;;;7.20;99.90;;;;;;4862981;29;20202;-88
2022/10/09 05:06:32;;;;;;;11.00;4.60;;;7.20;99.90;;;;;;4862469;29;20186;-88
2022/10/09 05:09:05;;;;;;;5.40;3.77;;;7.10;99.90;;;;;;4862294;29;20214;-88
2022/10/09 05:11:31;;;;;;;4.77;4.27;;;7.10;99.90;;;;;;4878108;29;20211;-87
2022/10/09 05:13:57;;;;;;;6.83;4.20;;;7.10;99.90;;;;;;4869986;29;20179;-89
2022/10/09 05:16:26;;;;;;;8.90;4.07;;;7.10;99.90;;;;;;4897504;29;20185;-88
2022/10/09 05:18:55;;;;;;;6.20;4.20;;;7.00;99.90;;;;;;4862629;29;20191;-88
2022/10/09 05:21:24;;;;;;;5.50;4.20;;;6.90;99.90;;;;;;4862290;29;20241;-88
2022/10/09 05:23:55;;;;;;;5.10;4.10;;;6.70;99.90;;;;;;4861931;29;20191;-88
2022/10/09 05:26:23;;;;;;;10.63;4.43;;;6.80;99.90;;;;;;4862500;29;20220;-88
2022/10/09 05:28:59;;;;;;;6.23;4.17;;;6.70;99.90;;;;;;4861754;29;20242;-88
2022/10/09 05:31:28;;;;;;;10.30;4.33;;;6.60;99.90;;;;;;4877765;29;20203;-88
2022/10/09 05:33:55;;;;;;;8.13;4.27;;;6.60;99.90;;;;;;4877751;29;20190;-88
2022/10/09 05:36:21;;;;;;;5.13;4.00;;;6.50;99.90;;;;;;4862452;29;20194;-88
2022/10/09 05:38:47;;;;;;;5.40;4.00;;;6.40;99.90;;;;;;4862185;29;20199;-88
2022/10/09 05:41:15;;;;;;;4.27;3.87;;;6.50;99.90;;;;;;4862382;29;20214;-91
2022/10/09 05:43:43;;;;;;;4.73;3.80;;;6.40;99.90;;;;;;4862503;29;20190;-88
2022/10/09 05:46:24;;;;;;;5.90;4.57;;;6.50;99.90;;;;;;4861935;29;20198;-88
2022/10/09 05:48:52;;;;;;;9.93;5.03;;;6.50;99.90;;;;;;4862077;29;20226;-88
2022/10/09 05:51:24;;;;;;;7.03;5.23;;;6.60;99.90;;;;;;4862361;29;20215;-88
2022/10/09 05:53:50;;;;;;;6.23;4.30;;;6.70;99.90;;;;;;4862289;29;20194;-87
2022/10/09 05:56:33;;;;;;;6.27;5.00;;;6.70;99.90;;;;;;4862492;29;20224;-88
2022/10/09 05:59:09;;;;;;;6.27;4.80;;;6.70;99.90;;;;;;4862692;29;20185;-88
2022/10/09 06:01:38;;;;;;;6.87;5.00;;;6.70;99.90;;;;;;4861687;29;20314;-88
2022/10/09 06:04:05;;;;;;;6.70;4.53;;;6.70;99.90;;;;;;4862170;29;20290;-88
2022/10/09 06:06:34;;;;;;;6.90;4.37;;;6.70;99.90;;;;;;4877432;29;20189;-87
2022/10/09 06:09:00;;;;;;;4.43;4.03;;;6.60;99.90;;;;;;4861889;29;20209;-88
2022/10/09 06:11:31;;;;;;;12.20;4.67;;;6.60;99.90;;;;;;4877340;29;20206;-87
2022/10/09 06:13:59;;;;;;;6.17;4.30;;;6.50;99.90;;;;;;4861985;29;20278;-87
2022/10/09 06:16:29;;;;;;;10.23;5.10;;;6.50;99.90;;;;;;4862282;29;20270;-87
2022/10/09 06:18:55;;;;;;;8.40;5.10;;;6.40;99.90;;;;;;4862134;29;20575;-88
2022/10/09 06:21:22;;;;;;;5.30;4.80;;;6.40;99.90;;;;;;4877725;29;20219;-87
2022/10/09 06:23:53;;;;;;;5.23;4.60;;;6.50;99.90;;;;;;4861877;29;20272;-88
2022/10/09 06:26:20;;;;;;;16.33;5.23;;;6.50;99.90;;;;;;4877339;29;20186;-88
2022/10/09 06:28:47;;;;;;;4.70;4.03;;;6.60;99.90;;;;;;4861501;29;20210;-88
2022/10/09 06:31:19;;;;;;;5.40;4.90;;;6.40;99.90;;;;;;4862117;29;20225;-88
2022/10/09 06:33:46;;;;;;;5.00;4.50;;;6.40;99.90;;;;;;4863343;29;20191;-88
2022/10/09 06:36:15;;;;;;;5.20;4.70;;;6.60;99.90;;;;;;4865462;29;20182;-88
2022/10/09 06:38:42;;;;;;;8.50;5.13;;;6.70;99.90;;;;;;4864892;29;20182;-88
2022/10/09 06:41:10;;;;;;;4.50;4.10;;;6.70;99.90;;;;;;4865118;29;20201;-87
2022/10/09 06:43:37;;;;;;;11.93;5.13;;;6.70;99.90;;;;;;4864439;29;20189;-87
2022/10/09 06:46:05;;;;;;;6.20;5.17;;;6.70;99.90;;;;;;4864844;29;20195;-87
2022/10/09 06:48:32;;;;;;;6.60;4.80;;;6.70;99.90;;;;;;4864919;29;20241;-87
2022/10/09 06:51:02;;;;;;;5.47;4.20;;;6.70;99.90;;;;;;4865533;29;20293;-87
2022/10/09 06:53:29;;;;;;;13.43;4.90;;;6.80;99.90;;;;;;4880487;29;20200;-87
2022/10/09 06:55:56;;;;;;;6.00;5.50;;;6.80;99.90;;;;;;4864983;29;20232;-87
2022/10/09 06:58:22;;;;;;;5.13;4.37;;;6.80;99.90;;;;;;4864862;29;20217;-87
2022/10/09 07:00:48;;;;;;;6.97;5.27;;;6.90;99.90;;;;;;4880080;29;20242;-87
2022/10/09 07:03:15;;;;;;;7.67;5.07;;;6.80;99.90;;;;;;4864676;29;20221;-87
2022/10/09 07:05:41;;;;;;;7.20;4.70;;;6.80;99.90;;;;;;4864968;29;20193;-87
2022/10/09 07:08:07;;;;;;;8.60;5.30;;;6.80;99.90;;;;;;4864896;29;20216;-87
2022/10/09 07:10:33;;;;;;;6.30;5.40;;;6.80;99.90;;;;;;4865282;29;20238;-87
2022/10/09 07:13:00;;;;;;;15.87;5.53;;;6.80;99.90;;;;;;4880244;29;20379;-87
2022/10/09 07:15:26;;;;;;;8.03;5.57;;;6.80;99.90;;;;;;4880439;29;20180;-87
2022/10/09 07:17:53;;;;;;;6.77;5.00;;;6.80;99.90;;;;;;4879957;29;20266;-87
2022/10/09 07:20:21;;;;;;;6.13;5.53;;;6.90;99.90;;;;;;4864654;29;20203;-87
2022/10/09 07:22:48;;;;;;;6.60;5.70;;;6.90;99.90;;;;;;4880257;29;20235;-87
2022/10/09 07:25:14;;;;;;;7.90;5.40;;;7.00;99.90;;;;;;4865174;29;20195;-87
2022/10/09 07:27:41;;;;;;;16.10;7.50;;;7.00;99.90;;;;;;4864544;29;20194;-87
2022/10/09 07:30:07;;;;;;;18.03;7.03;;;7.00;99.90;;;;;;4880339;29;20190;-87
2022/10/09 07:32:33;;;;;;;17.27;7.13;;;7.00;99.90;;;;;;4864759;29;20743;-87
2022/10/09 07:35:00;;;;;;;10.23;6.83;;;7.10;99.90;;;;;;4864533;29;20188;-87
2022/10/09 07:37:25;;;;;;;7.17;6.43;;;7.20;99.90;;;;;;4864108;29;20186;-87
2022/10/09 07:39:51;;;;;;;10.63;6.67;;;7.30;99.90;;;;;;4865256;29;20207;-87
2022/10/09 07:42:17;;;;;;;9.03;6.90;;;7.40;99.90;;;;;;4866479;29;20221;-87
2022/10/09 07:44:43;;;;;;;6.60;6.00;;;7.50;99.90;;;;;;4868481;29;20263;-87
2022/10/09 07:47:09;;;;;;;13.67;6.40;;;7.60;99.90;;;;;;4865280;29;20712;-87
2022/10/09 07:49:36;;;;;;;15.60;6.37;;;7.70;99.90;;;;;;4864282;29;20214;-87
2022/10/09 07:52:05;;;;;;;7.37;6.00;;;7.70;99.90;;;;;;4864630;29;20208;-87
2022/10/09 07:54:31;;;;;;;7.77;6.17;;;7.80;99.90;;;;;;4864327;29;20191;-87
2022/10/09 07:56:59;;;;;;;7.93;5.97;;;7.90;99.90;;;;;;4863739;29;20560;-87
2022/10/09 07:59:25;;;;;;;12.17;6.00;;;7.90;99.90;;;;;;4864106;29;20271;-87
2022/10/09 08:01:52;;;;;;;8.07;6.00;;;8.00;99.90;;;;;;4863979;29;20501;-88
2022/10/09 08:04:18;;;;;;;7.60;6.80;;;8.00;99.90;;;;;;4848382;29;20199;-88
2022/10/09 08:07:21;;;;;;;7.63;6.17;;;8.10;99.90;;;;;;4863323;29;20289;-89
2022/10/09 08:09:47;;;;;;;7.03;6.27;;;8.30;99.90;;;;;;4863780;29;20635;-88
2022/10/09 08:12:14;;;;;;;7.80;6.70;;;8.40;99.90;;;;;;4845464;29;20298;-89
2022/10/09 08:14:40;;;;;;;8.77;6.90;;;8.50;99.90;;;;;;4846255;29;20188;-88
2022/10/09 08:17:07;;;;;;;8.07;7.27;;;8.70;99.90;;;;;;4862458;29;20209;-89
2022/10/09 08:19:33;;;;;;;8.80;7.70;;;8.90;99.90;;;;;;4863588;29;20200;-89
2022/10/09 08:22:00;;;;;;;11.67;9.37;;;9.00;99.90;;;;;;4863960;29;20228;-88
2022/10/09 08:24:28;;;;;;;11.63;9.23;;;9.10;99.90;;;;;;4879090;29;20188;-88
2022/10/09 08:26:56;;;;;;;7.93;7.23;;;9.30;99.90;;;;;;4863380;29;20191;-88
2022/10/09 08:29:32;;;;;;;9.77;7.80;;;9.40;99.90;;;;;;4879251;29;20238;-88
2022/10/09 08:31:58;;;;;;;9.20;7.27;;;9.50;99.90;;;;;;4863008;29;20287;-87
2022/10/09 08:34:32;;;;;;;9.20;7.90;;;9.60;99.90;;;;;;4879375;29;20167;-87
2022/10/09 08:36:58;;;;;;;9.10;7.57;;;9.60;99.90;;;;;;4878815;29;20208;-88
2022/10/09 08:39:29;;;;;;;8.30;7.40;;;9.70;99.90;;;;;;4863449;29;20267;-87
2022/10/09 08:42:02;;;;;;;7.80;7.00;;;9.80;99.90;;;;;;4878498;29;20212;-89
2022/10/09 08:44:38;;;;;;;8.30;7.50;;;9.90;99.90;;;;;;4878746;29;20176;-88
2022/10/09 08:47:22;;;;;;;8.20;7.40;;;10.10;99.90;;;;;;4863698;29;20203;-88
2022/10/09 08:50:10;;;;;;;7.93;6.93;;;10.20;99.90;;;;;;4863185;29;20208;-87
2022/10/09 08:52:44;;;;;;;8.33;6.93;;;10.40;99.90;;;;;;4863552;29;20234;-85
2022/10/09 08:55:18;;;;;;;7.60;6.80;;;10.50;99.90;;;;;;4860179;29;20188;-88
2022/10/09 08:58:04;;;;;;;7.83;6.83;;;10.80;99.90;;;;;;4862985;29;20179;-88
2022/10/09 09:01:01;;;;;;;8.13;6.97;;;11.00;99.90;;;;;;4863215;29;20260;-89
2022/10/09 09:03:54;;;;;;;7.43;5.40;;;11.20;99.90;;;;;;4847424;29;20188;-88
2022/10/09 09:06:56;;;;;;;9.33;5.57;;;11.50;99.90;;;;;;4863159;29;20177;-88
2022/10/09 09:13:19;;;;;;;8.50;7.37;;;12.00;99.90;;;;;;4878418;29;20263;-88
2022/10/09 09:15:59;;;;;;;7.67;6.43;;;12.30;99.90;;;;;;4870221;29;20194;-88
2022/10/09 09:19:12;;;;;;;6.77;5.73;;;12.40;99.90;;;;;;4864154;29;20238;-88
2022/10/09 09:21:48;;;;;;;5.77;5.17;;;12.50;99.90;;;;;;4862790;29;20311;-89
2022/10/09 09:24:18;;;;;;;5.37;4.83;;;12.40;99.90;;;;;;4877986;29;20269;-88
2022/10/09 09:26:49;;;;;;;5.83;4.50;;;12.60;99.90;;;;;;4862379;29;20189;-89
2022/10/09 09:29:20;;;;;;;6.17;4.70;;;12.80;99.90;;;;;;4862668;29;20225;-88
2022/10/09 09:31:49;;;;;;;5.43;3.93;;;13.00;99.90;;;;;;4862216;29;20210;-89
2022/10/09 09:34:33;;;;;;;3.90;3.00;;;13.20;99.90;;;;;;4877908;29;20286;-88
2022/10/09 09:37:00;;;;;;;4.63;3.10;;;13.40;99.90;;;;;;4862387;29;20183;-89
2022/10/09 09:39:28;;;;;;;3.10;2.67;;;13.70;99.90;;;;;;4862409;29;20197;-88
2022/10/09 09:42:06;;;;;;;4.97;2.30;;;13.90;99.90;;;;;;4862223;29;20302;-89
2022/10/09 09:44:34;;;;;;;2.97;2.20;;;14.10;99.90;;;;;;4862274;29;20200;-89
2022/10/09 09:47:01;;;;;;;6.27;2.67;;;14.30;99.90;;;;;;4862530;29;20191;-88
2022/10/09 09:49:28;;;;;;;4.13;2.40;;;14.50;99.90;;;;;;4862741;29;20748;-88
2022/10/09 09:52:00;;;;;;;5.43;2.73;;;14.60;99.90;;;;;;4862887;29;20199;-90
2022/10/09 09:54:29;;;;;;;2.73;2.37;;;14.70;99.90;;;;;;4864590;29;20179;-88
2022/10/09 09:56:57;;;;;;;3.23;2.10;;;14.80;99.90;;;;;;4864165;29;20183;-92
2022/10/09 09:59:29;;;;;;;4.10;2.50;;;14.90;99.90;;;;;;4864021;29;20197;-93
2022/10/09 10:02:20;;;;;;;5.43;2.70;;;15.00;99.90;;;;;;4872439;29;20247;-91
2022/10/09 10:05:01;;;;;;;4.17;2.37;;;15.10;99.90;;;;;;4862826;29;20294;-91
2022/10/09 10:07:56;;;;;;;5.43;2.07;;;15.20;99.90;;;;;;4857274;29;20220;-92
2022/10/09 10:10:26;;;;;;;4.03;2.10;;;15.30;99.90;;;;;;4865593;29;20204;-92
2022/10/09 10:15:48;;;;;;;3.23;2.17;;;15.50;99.90;;;;;;4863277;29;20212;-42
2022/10/09 10:18:15;;;;;;;3.20;2.07;;;15.70;99.90;;;;;;4858999;29;20199;-42
2022/10/09 10:20:56;;;;;;;5.20;2.20;;;15.70;99.90;;;;;;4841829;29;20216;-41
2022/10/09 10:23:43;;;;;;;3.90;2.10;;;15.80;99.90;;;;;;4843797;29;20238;-41
2022/10/09 10:26:30;;;;;;;2.73;1.83;;;15.90;99.90;;;;;;4846459;29;20201;-40
2022/10/09 10:29:18;;;;;;;3.70;1.80;;;16.00;99.90;;;;;;4856924;23;20292;-38
2022/10/09 10:31:58;;;;;;;3.53;1.97;;;16.20;99.90;;;;;;4846682;29;20192;-39
2022/10/09 10:34:28;;;;;;;3.37;1.90;;;16.30;99.90;;;;;;4834288;29;20189;-38
2022/10/09 10:37:19;;;;;;;2.37;1.73;;;16.40;99.90;;;;;;4835868;29;20187;-38
2022/10/09 10:40:16;;;;;;;4.90;1.80;;;16.50;99.90;;;;;;4826174;29;20190;-39
2022/10/09 10:42:54;;;;;;;2.30;1.50;;;16.50;99.90;;;;;;4820045;29;20205;-36
2022/10/09 10:45:30;;;;;;;3.67;2.07;;;16.50;99.90;;;;;;4837845;29;20205;-37
2022/10/09 10:47:58;;;;;;;2.33;1.70;;;16.60;99.90;;;;;;4823262;29;20291;-38
2022/10/09 10:50:36;;;;;;;1.67;1.50;;;16.70;99.90;;;;;;4838290;29;20204;-38
2022/10/09 10:53:20;;;;;;;2.30;1.40;;;16.80;99.90;;;;;;4838426;29;20280;-38
2022/10/09 10:55:55;;;;;;;2.40;1.80;;;16.90;99.90;;;;;;4838293;29;20186;-37
2022/10/09 10:58:30;;;;;;;4.20;1.70;;;16.90;99.90;;;;;;4838327;29;20246;-38
2022/10/09 11:01:19;;;;;;;3.28;1.50;;;17.10;99.90;;;;;;4837503;29;20214;-40
2022/10/09 11:04:23;;;;;;;5.18;1.70;;;17.10;99.90;;;;;;4829059;29;20229;-37
2022/10/09 11:07:18;;;;;;;3.13;1.50;;;17.20;99.90;;;;;;4813354;29;20286;-37
2022/10/09 11:09:49;;;;;;;4.13;1.80;;;17.20;99.90;;;;;;4826753;29;20217;-41
2022/10/09 11:12:29;;;;;;;2.67;1.67;;;17.10;99.90;;;;;;4838176;29;20201;-39
2022/10/09 11:15:20;;;;;;;5.17;1.40;;;17.10;99.90;;;;;;4820766;29;20186;-39
2022/10/09 11:18:06;;;;;;;3.47;1.63;;;17.20;99.90;;;;;;4814045;29;20218;-39
2022/10/09 11:20:38;;;;;;;3.00;1.50;;;17.30;99.90;;;;;;4821448;29;20182;-38
2022/10/09 11:23:12;;;;;;;3.10;1.52;;;17.40;99.90;;;;;;4822000;29;20189;-40
2022/10/09 11:25:50;;;;;;;2.58;1.58;;;17.50;99.90;;;;;;4837199;29;20194;-41
2022/10/09 11:28:32;;;;;;;1.25;1.10;;;17.50;99.90;;;;;;4806385;29;20245;-41
2022/10/09 11:31:12;;;;;;;2.35;1.67;;;17.50;99.90;;;;;;4838825;29;20197;-39
2022/10/09 11:33:47;;;;;;;3.55;1.38;;;17.40;99.90;;;;;;4826416;29;20190;-37
2022/10/09 11:36:31;;;;;;;3.28;1.45;;;17.40;99.90;;;;;;4839362;29;20199;-40
2022/10/09 11:39:18;;;;;;;3.35;1.90;;;17.40;99.90;;;;;;4827635;29;20210;-39
2022/10/09 11:41:47;;;;;;;3.00;1.70;;;17.40;99.90;;;;;;4825385;29;20679;-36
2022/10/09 11:44:31;;;;;;;2.55;1.50;;;17.50;99.90;;;;;;4841024;29;20288;-38
2022/10/09 11:47:18;;;;;;;4.22;1.80;;;17.60;99.90;;;;;;4825924;29;20464;-37
2022/10/09 11:50:10;;;;;;;3.78;1.80;;;17.80;99.90;;;;;;4810315;29;20323;-37
2022/10/09 11:53:02;;;;;;;4.57;1.77;;;18.00;99.90;;;;;;4841579;29;20220;-37
2022/10/09 11:55:31;;;;;;;2.58;1.40;;;18.20;99.90;;;;;;4826000;29;20212;-37
2022/10/09 11:58:24;;;;;;;3.53;1.42;;;18.40;99.90;;;;;;4840631;29;20301;-36
2022/10/09 12:00:55;;;;;;;1.60;1.33;;;18.60;99.90;;;;;;4832616;29;20185;-36
2022/10/09 12:03:32;;;;;;;2.88;1.65;;;18.70;99.90;;;;;;4827537;29;20186;-36
2022/10/09 12:06:16;;;;;;;4.07;1.55;;;18.70;99.90;;;;;;4836278;29;20186;-40
2022/10/09 12:08:55;;;;;;;1.85;1.20;;;18.60;99.90;;;;;;4822964;29;20241;-37
2022/10/09 12:11:22;;;;;;;4.55;1.48;;;18.70;99.90;;;;;;4808500;29;20253;-39
2022/10/09 12:14:01;;;;;;;2.10;1.30;;;18.80;99.90;;;;;;4837087;29;20280;-36
2022/10/09 12:16:40;;;;;;;3.33;1.45;;;18.80;99.90;;;;;;4806685;29;20185;-38
2022/10/09 12:19:32;;;;;;;2.78;1.30;;;18.80;99.90;;;;;;4836607;29;20214;-38
2022/10/09 12:22:16;;;;;;;3.13;2.10;;;18.80;99.90;;;;;;4821510;29;20241;-36
2022/10/09 12:24:48;;;;;;;4.63;1.63;;;18.90;99.90;;;;;;4821469;29;20226;-38
2022/10/09 12:27:26;;;;;;;3.15;1.73;;;18.90;99.90;;;;;;4836030;29;20312;-36
2022/10/09 12:30:01;;;;;;;2.65;1.52;;;19.00;99.90;;;;;;4806395;29;20206;-38
2022/10/09 12:32:36;;;;;;;2.38;1.48;;;18.90;99.90;;;;;;4821389;29;20188;-37
2022/10/09 12:35:25;;;;;;;1.75;1.38;;;18.90;99.90;;;;;;4835732;29;20184;-37
2022/10/09 12:37:51;;;;;;;3.58;1.77;;;18.90;99.90;;;;;;4829522;29;20216;-37
2022/10/09 12:40:43;;;;;;;3.00;1.45;;;19.00;99.90;;;;;;4823622;29;20244;-36
2022/10/09 12:43:09;;;;;;;3.20;1.33;;;19.10;99.90;;;;;;4821369;29;20239;-38
2022/10/09 12:45:43;;;;;;;2.70;1.33;;;19.20;99.90;;;;;;4834574;29;20189;-38
2022/10/09 12:48:11;;;;;;;1.60;1.40;;;19.30;99.90;;;;;;4847813;29;20209;-36
2022/10/09 12:50:38;;;;;;;1.67;1.25;;;19.40;99.90;;;;;;4832290;29;20230;-36
2022/10/09 12:53:15;;;;;;;2.85;1.30;;;19.30;99.90;;;;;;4838376;29;20185;-38
2022/10/09 12:55:44;;;;;;;3.45;1.65;;;19.30;99.90;;;;;;4819097;29;20182;-40
2022/10/09 12:58:18;;;;;;;3.53;1.35;;;19.40;99.90;;;;;;4835936;29;20266;-38
2022/10/09 13:00:46;;;;;;;3.05;1.27;;;19.40;99.90;;;;;;4836113;29;20190;-36
2022/10/09 13:03:25;;;;;;;2.53;1.30;;;19.50;99.90;;;;;;4836273;29;20285;-36
2022/10/09 13:05:52;;;;;;;3.28;1.40;;;19.40;99.90;;;;;;4829954;29;20212;-36
2022/10/09 13:08:28;;;;;;;3.47;1.42;;;19.30;99.90;;;;;;4824218;29;20217;-37
2022/10/09 13:11:18;;;;;;;2.85;1.40;;;19.30;99.90;;;;;;4831460;29;20193;-37
2022/10/09 13:13:52;;;;;;;3.75;1.60;;;19.30;99.90;;;;;;4827736;29;20264;-36
2022/10/09 13:16:19;;;;;;;2.72;1.27;;;19.20;99.90;;;;;;4844998;29;20186;-36
2022/10/09 13:18:55;;;;;;;2.25;1.35;;;19.20;99.90;;;;;;4841584;29;20301;-38
2022/10/09 13:21:27;;;;;;;3.00;1.58;;;19.10;99.90;;;;;;4826947;29;20192;-39